createdAt,value
2022-10-13T00:01:10.764Z,3.72
2022-10-13T00:03:39.712Z,4.10
2022-10-13T00:06:10.472Z,3.63
2022-10-13T00:08:39.015Z,4.40
2022-10-13T00:11:11.735Z,4.10
2022-10-13T00:13:39.504Z,3.80
2022-10-13T00:16:08.586Z,3.90
2022-10-13T00:18:36.308Z,3.28
2022-10-13T00:21:09.877Z,3.92
2022-10-13T00:23:37.968Z,3.85
2022-10-13T00:26:07.736Z,4.13
2022-10-13T00:28:35.907Z,3.35
2022-10-13T00:31:03.591Z,3.50
2022-10-13T00:33:31.225Z,4.00
2022-10-13T00:35:59.385Z,3.50
2022-10-13T00:38:28.408Z,4.03
2022-10-13T00:40:57.261Z,3.65
2022-10-13T00:43:27.447Z,4.05
2022-10-13T00:45:55.833Z,3.53
2022-10-13T00:48:26.503Z,3.92
2022-10-13T00:50:55.012Z,4.18
2022-10-13T00:53:25.290Z,3.55
2022-10-13T00:55:55.538Z,3.42
2022-10-13T00:58:26.396Z,3.78
2022-10-13T01:00:54.601Z,4.03
2022-10-13T01:03:23.115Z,4.00
2022-10-13T01:05:52.354Z,4.18
2022-10-13T01:08:21.681Z,4.50
2022-10-13T01:10:59.256Z,4.70
2022-10-13T01:13:35.794Z,3.90
2022-10-13T01:16:14.007Z,4.32
2022-10-13T01:18:51.067Z,4.30
2022-10-13T01:21:29.294Z,4.00
2022-10-13T01:24:15.465Z,4.18
2022-10-13T01:27:02.340Z,4.40
2022-10-13T01:29:59.152Z,3.90
2022-10-13T01:32:32.570Z,4.60
2022-10-13T01:35:08.757Z,4.63
2022-10-13T01:37:45.006Z,4.20
2022-10-13T01:40:19.492Z,3.97
2022-10-13T01:42:54.442Z,3.70
2022-10-13T01:45:28.040Z,4.50
2022-10-13T01:47:57.030Z,4.05
2022-10-13T01:50:24.648Z,5.03
2022-10-13T01:52:53.847Z,4.60
2022-10-13T01:55:21.541Z,4.15
2022-10-13T01:57:49.297Z,4.20
2022-10-13T02:00:19.428Z,4.38
2022-10-13T02:02:58.233Z,4.82
2022-10-13T02:05:35.476Z,4.30
2022-10-13T02:08:09.525Z,5.07
2022-10-13T02:10:47.066Z,4.32
2022-10-13T02:13:17.878Z,4.32
2022-10-13T02:15:50.073Z,4.53
2022-10-13T02:18:23.390Z,4.38
2022-10-13T02:20:52.060Z,4.28
2022-10-13T02:23:20.228Z,4.75
2022-10-13T02:25:49.892Z,4.38
2022-10-13T02:28:18.831Z,4.53
2022-10-13T02:30:47.373Z,4.35
2022-10-13T02:33:15.485Z,4.65
2022-10-13T02:35:44.754Z,4.47
2022-10-13T02:38:12.890Z,5.22
2022-10-13T02:40:40.563Z,4.47
2022-10-13T02:43:08.522Z,4.22
2022-10-13T02:45:36.058Z,4.40
2022-10-13T02:48:03.692Z,4.50
2022-10-13T02:50:31.874Z,4.13
2022-10-13T02:53:00.848Z,4.35
2022-10-13T02:55:28.535Z,3.92
2022-10-13T02:57:59.056Z,4.38
2022-10-13T03:00:27.019Z,3.90
2022-10-13T03:02:55.033Z,4.00
2022-10-13T03:05:22.659Z,4.00
2022-10-13T03:07:50.702Z,4.82
2022-10-13T03:10:19.721Z,4.80
2022-10-13T03:12:48.354Z,4.35
2022-10-13T03:15:16.309Z,4.68
2022-10-13T03:17:44.039Z,4.63
2022-10-13T03:20:11.710Z,4.10
2022-10-13T03:22:39.338Z,4.30
2022-10-13T03:25:07.671Z,4.70
2022-10-13T03:27:36.637Z,4.13
2022-10-13T03:30:04.708Z,4.32
2022-10-13T03:32:33.589Z,4.85
2022-10-13T03:35:01.128Z,4.85
2022-10-13T03:37:30.182Z,4.57
2022-10-13T03:39:57.778Z,4.10
2022-10-13T03:42:25.353Z,4.32
2022-10-13T03:44:56.461Z,4.75
2022-10-13T03:47:24.415Z,4.15
2022-10-13T03:49:55.102Z,5.07
2022-10-13T03:52:23.168Z,4.72
2022-10-13T03:54:51.019Z,4.40
2022-10-13T03:57:18.629Z,4.60
2022-10-13T03:59:46.170Z,4.65
2022-10-13T04:02:15.042Z,4.90
2022-10-13T04:04:42.575Z,5.05
2022-10-13T04:07:10.303Z,5.00
2022-10-13T04:09:37.889Z,4.70
2022-10-13T04:12:06.547Z,5.07
2022-10-13T04:14:34.187Z,4.80
2022-10-13T04:17:08.841Z,4.53
2022-10-13T04:19:37.757Z,4.65
2022-10-13T04:22:06.281Z,5.20
2022-10-13T04:24:34.243Z,4.75
2022-10-13T04:27:01.765Z,4.50
2022-10-13T04:29:29.427Z,4.80
2022-10-13T04:31:56.952Z,5.10
2022-10-13T04:34:24.581Z,5.20
2022-10-13T04:36:53.476Z,5.80
2022-10-13T04:39:21.070Z,5.28
2022-10-13T04:41:51.023Z,4.95
2022-10-13T04:44:18.617Z,5.53
2022-10-13T04:46:46.143Z,4.60
2022-10-13T04:49:15.228Z,5.65
2022-10-13T04:51:42.938Z,5.20
2022-10-13T04:54:11.836Z,4.78
2022-10-13T04:56:39.582Z,5.20
2022-10-13T04:59:07.148Z,5.10
2022-10-13T05:01:35.870Z,5.22
2022-10-13T05:04:07.149Z,5.38
2022-10-13T05:06:53.283Z,4.88
2022-10-13T05:09:22.911Z,4.60
2022-10-13T05:11:50.512Z,4.93
2022-10-13T05:14:18.176Z,5.05
2022-10-13T05:16:45.856Z,5.32
2022-10-13T05:19:16.178Z,4.97
2022-10-13T05:21:43.871Z,4.80
2022-10-13T05:24:13.504Z,5.80
2022-10-13T05:26:43.082Z,5.35
2022-10-13T05:29:10.644Z,5.85
2022-10-13T05:31:38.631Z,5.05
2022-10-13T05:34:06.268Z,5.15
2022-10-13T05:36:35.507Z,5.40
2022-10-13T05:39:05.877Z,5.13
2022-10-13T05:41:34.102Z,5.32
2022-10-13T05:44:09.200Z,5.13
2022-10-13T05:46:42.946Z,5.05
2022-10-13T05:49:10.883Z,5.50
2022-10-13T05:51:42.350Z,4.88
2022-10-13T05:54:13.572Z,5.32
2022-10-13T05:56:45.953Z,5.82
2022-10-13T05:59:19.893Z,5.55
2022-10-13T06:01:50.205Z,5.88
2022-10-13T06:04:22.877Z,5.40
2022-10-13T06:06:50.874Z,5.95
2022-10-13T06:09:18.839Z,5.35
2022-10-13T06:11:46.466Z,5.30
2022-10-13T06:14:15.497Z,6.40
2022-10-13T06:16:43.222Z,6.57
2022-10-13T06:19:10.990Z,5.70
2022-10-13T06:21:38.550Z,5.78
2022-10-13T06:24:06.674Z,6.18
2022-10-13T06:26:34.360Z,5.85
2022-10-13T06:29:02.281Z,6.07
2022-10-13T06:31:31.300Z,9.15
2022-10-13T06:33:59.629Z,5.90
2022-10-13T06:36:27.689Z,5.93
2022-10-13T06:38:55.304Z,5.90
2022-10-13T06:41:23.079Z,6.40
2022-10-13T06:43:50.850Z,6.60
2022-10-13T06:46:18.486Z,6.28
2022-10-13T06:48:50.181Z,6.45
2022-10-13T06:51:17.994Z,6.30
2022-10-13T06:53:46.679Z,7.22
2022-10-13T06:56:14.730Z,7.07
2022-10-13T06:58:42.611Z,6.63
2022-10-13T07:01:13.674Z,6.57
2022-10-13T07:03:41.500Z,7.00
2022-10-13T07:06:10.526Z,7.80
2022-10-13T07:08:38.077Z,7.65
2022-10-13T07:11:15.377Z,7.38
2022-10-13T07:13:46.449Z,8.20
2022-10-13T07:16:16.268Z,7.78
2022-10-13T07:18:43.958Z,7.47
2022-10-13T07:21:12.887Z,7.78
2022-10-13T07:23:40.870Z,7.82
2022-10-13T07:26:09.448Z,8.32
2022-10-13T07:28:37.138Z,7.55
2022-10-13T07:31:10.898Z,7.03
2022-10-13T07:33:39.287Z,7.47
2022-10-13T07:36:07.581Z,7.10
2022-10-13T07:38:36.569Z,7.28
2022-10-13T07:41:06.079Z,6.63
2022-10-13T07:43:33.692Z,8.32
2022-10-13T07:46:07.043Z,7.60
2022-10-13T07:48:35.509Z,7.22
2022-10-13T07:51:05.806Z,7.80
2022-10-13T07:53:35.201Z,7.32
2022-10-13T07:56:06.329Z,8.50
2022-10-13T07:58:34.506Z,7.78
2022-10-13T08:01:03.198Z,8.07
2022-10-13T08:03:31.832Z,7.53
2022-10-13T08:06:00.159Z,8.05
2022-10-13T08:08:28.194Z,7.80
2022-10-13T08:10:56.193Z,7.88
2022-10-13T08:13:25.659Z,10.43
2022-10-13T08:15:53.500Z,7.60
2022-10-13T08:18:21.138Z,8.57
2022-10-13T08:20:48.789Z,8.35
2022-10-13T08:23:18.929Z,9.13
2022-10-13T08:25:51.298Z,8.80
2022-10-13T08:28:21.266Z,8.38
2022-10-13T08:30:51.835Z,7.90
2022-10-13T08:33:19.791Z,8.90
2022-10-13T08:35:47.856Z,8.93
2022-10-13T08:38:15.773Z,9.02
2022-10-13T08:40:48.087Z,8.50
2022-10-13T08:43:18.553Z,9.25
2022-10-13T08:45:46.832Z,8.98
2022-10-13T08:48:19.740Z,9.20
2022-10-13T08:50:51.444Z,8.93
2022-10-13T08:53:26.524Z,9.45
2022-10-13T08:55:58.522Z,9.48
2022-10-13T08:58:29.085Z,8.85
2022-10-13T09:01:06.039Z,8.85
2022-10-13T09:03:44.973Z,9.27
2022-10-13T09:06:16.152Z,9.75
2022-10-13T09:08:49.877Z,9.00
2022-10-13T09:11:17.890Z,9.13
2022-10-13T09:13:45.535Z,8.95
2022-10-13T09:16:13.205Z,10.27
2022-10-13T09:18:42.109Z,9.63
2022-10-13T09:21:20.266Z,9.75
2022-10-13T09:23:50.997Z,9.60
2022-10-13T09:26:22.375Z,9.02
2022-10-13T09:28:51.377Z,10.70
2022-10-13T09:31:24.414Z,9.68
2022-10-13T09:34:00.836Z,9.27
2022-10-13T09:36:29.441Z,9.68
2022-10-13T09:39:09.345Z,10.23
2022-10-13T09:41:38.783Z,10.60
2022-10-13T09:44:12.933Z,11.57
2022-10-13T09:46:48.493Z,10.30
2022-10-13T09:49:37.684Z,11.52
2022-10-13T09:52:17.414Z,11.52
2022-10-13T09:54:48.378Z,11.02
2022-10-13T09:57:23.470Z,9.60
2022-10-13T09:59:52.871Z,11.48
2022-10-13T10:02:29.447Z,10.00
2022-10-13T10:05:04.044Z,10.35
2022-10-13T10:07:33.805Z,10.30
2022-10-13T10:10:05.864Z,10.02
2022-10-13T10:12:38.202Z,11.02
2022-10-13T10:15:17.973Z,10.82
2022-10-13T10:17:53.091Z,10.00
2022-10-13T10:20:49.985Z,11.75
2022-10-13T10:23:21.668Z,11.40
2022-10-13T10:25:52.341Z,10.95
2022-10-13T10:28:43.013Z,10.55
2022-10-13T10:31:21.939Z,10.05
2022-10-13T10:34:00.127Z,10.10
2022-10-13T10:36:41.444Z,10.55
2022-10-13T10:39:18.116Z,11.90
2022-10-13T10:41:52.026Z,11.45
2022-10-13T10:44:24.764Z,10.55
2022-10-13T10:46:55.708Z,10.32
2022-10-13T10:49:29.601Z,10.32
2022-10-13T10:51:59.572Z,9.93
2022-10-13T10:54:34.999Z,9.50
2022-10-13T10:57:10.684Z,9.95
2022-10-13T10:59:50.639Z,10.38
2022-10-13T11:02:35.735Z,10.48
2022-10-13T11:05:06.304Z,9.20
2022-10-13T11:07:58.519Z,10.02
2022-10-13T11:10:27.203Z,10.00
2022-10-13T11:13:22.272Z,9.10
2022-10-13T11:15:50.452Z,9.50
2022-10-13T11:19:05.659Z,9.63
2022-10-13T11:22:07.070Z,9.90
2022-10-13T11:24:57.250Z,9.45
2022-10-13T11:27:39.781Z,9.05
2022-10-13T11:30:47.229Z,9.35
2022-10-13T11:33:35.579Z,8.30
2022-10-13T11:36:39.348Z,9.77
2022-10-13T11:39:34.615Z,10.63
2022-10-13T11:42:12.436Z,9.40
2022-10-13T11:44:54.105Z,9.43
2022-10-13T11:47:45.142Z,9.43
2022-10-13T11:50:22.215Z,9.27
2022-10-13T11:53:15.071Z,8.80
2022-10-13T11:55:50.764Z,9.00
2022-10-13T11:58:21.317Z,9.50
2022-10-13T12:00:54.858Z,8.95
2022-10-13T12:03:27.540Z,8.98
2022-10-13T12:05:58.280Z,8.32
2022-10-13T12:08:28.611Z,8.70
2022-10-13T12:11:00.016Z,8.52
2022-10-13T12:13:29.768Z,8.75
2022-10-13T12:16:00.676Z,8.68
2022-10-13T12:18:33.900Z,9.18
2022-10-13T12:21:04.477Z,9.65
2022-10-13T12:23:33.532Z,9.73
2022-10-13T12:26:01.757Z,8.90
2022-10-13T12:28:31.723Z,9.80
2022-10-13T12:31:00.940Z,8.85
2022-10-13T12:33:32.864Z,9.57
2022-10-13T12:36:14.975Z,9.52
2022-10-13T12:38:47.802Z,8.45
2022-10-13T12:41:20.683Z,10.05
2022-10-13T12:43:48.684Z,10.55
2022-10-13T12:46:38.547Z,9.95
2022-10-13T12:49:08.400Z,10.88
2022-10-13T12:51:37.886Z,11.38
2022-10-13T12:54:10.393Z,9.45
2022-10-13T12:56:38.036Z,9.88
2022-10-13T12:59:05.787Z,9.27
2022-10-13T13:01:34.748Z,10.55
2022-10-13T13:04:16.046Z,9.02
2022-10-13T13:06:55.691Z,10.50
2022-10-13T13:09:26.869Z,9.50
2022-10-13T13:12:22.197Z,9.30
2022-10-13T13:14:54.576Z,9.43
2022-10-13T13:17:52.925Z,9.90
2022-10-13T13:20:27.012Z,9.52
2022-10-13T13:22:56.891Z,11.02
2022-10-13T13:25:25.460Z,10.63
2022-10-13T13:27:53.429Z,10.73
2022-10-13T13:30:23.284Z,10.25
2022-10-13T13:32:50.969Z,10.25
2022-10-13T13:35:18.690Z,8.52
2022-10-13T13:37:49.541Z,9.93
2022-10-13T13:40:21.412Z,10.02
2022-10-13T13:42:49.047Z,9.63
2022-10-13T13:45:18.221Z,9.85
2022-10-13T13:47:45.984Z,9.18
2022-10-13T13:50:18.069Z,9.40
2022-10-13T13:52:54.951Z,10.45
2022-10-13T13:55:24.178Z,10.98
2022-10-13T13:57:51.932Z,10.15
2022-10-13T14:00:20.565Z,9.00
2022-10-13T14:02:53.962Z,9.77
2022-10-13T14:05:21.609Z,9.20
2022-10-13T14:07:49.137Z,10.10
2022-10-13T14:10:16.966Z,9.10
2022-10-13T14:12:45.850Z,9.68
2022-10-13T14:15:13.452Z,8.88
2022-10-13T14:17:40.998Z,9.50
2022-10-13T14:20:09.189Z,8.63
2022-10-13T14:22:38.969Z,9.32
2022-10-13T14:25:08.120Z,10.05
2022-10-13T14:27:36.962Z,7.65
2022-10-13T14:30:07.651Z,8.00
2022-10-13T14:32:35.557Z,7.35
2022-10-13T14:35:03.763Z,7.82
2022-10-13T14:37:33.612Z,7.93
2022-10-13T14:40:02.070Z,7.47
2022-10-13T14:42:29.743Z,7.65
2022-10-13T14:44:57.468Z,7.78
2022-10-13T14:47:27.786Z,10.05
2022-10-13T14:49:55.507Z,7.30
2022-10-13T14:52:23.169Z,8.10
2022-10-13T14:54:50.945Z,6.63
2022-10-13T14:57:19.490Z,8.27
2022-10-13T14:59:47.521Z,8.45
2022-10-13T15:02:15.111Z,8.70
2022-10-13T15:04:53.573Z,8.82
2022-10-13T15:07:21.438Z,7.63
2022-10-13T15:10:04.325Z,8.05
2022-10-13T15:12:33.038Z,7.38
2022-10-13T15:15:00.594Z,7.70
2022-10-13T15:17:28.308Z,8.13
2022-10-13T15:19:57.537Z,7.93
2022-10-13T15:22:25.476Z,7.80
2022-10-13T15:24:53.058Z,8.05
2022-10-13T15:27:20.576Z,6.97
2022-10-13T15:29:48.429Z,6.45
2022-10-13T15:32:18.526Z,8.20
2022-10-13T15:34:50.605Z,7.75
2022-10-13T15:37:19.621Z,8.38
2022-10-13T15:39:47.304Z,7.35
2022-10-13T15:42:14.901Z,8.45
2022-10-13T15:45:09.221Z,8.93
2022-10-13T15:47:30.386Z,9.02
2022-10-13T15:49:58.067Z,7.40
2022-10-13T15:52:30.997Z,9.63
2022-10-13T15:55:02.155Z,9.52
2022-10-13T15:57:31.495Z,9.65
2022-10-13T15:59:59.177Z,10.05
2022-10-13T16:02:26.842Z,9.35
2022-10-13T16:04:54.518Z,7.88
2022-10-13T16:07:22.078Z,8.23
2022-10-13T16:09:51.117Z,8.98
2022-10-13T16:12:19.073Z,8.27
2022-10-13T16:14:46.933Z,7.88
2022-10-13T16:17:14.514Z,8.80
2022-10-13T16:19:42.153Z,8.13
2022-10-13T16:22:09.917Z,11.18
2022-10-13T16:24:37.845Z,12.05
2022-10-13T16:27:08.214Z,11.63
2022-10-13T16:29:35.770Z,9.68
2022-10-13T16:32:03.297Z,9.63
2022-10-13T16:34:30.950Z,9.35
2022-10-13T16:36:59.029Z,9.60
2022-10-13T16:39:28.298Z,10.23
2022-10-13T16:41:55.946Z,10.00
2022-10-13T16:44:26.928Z,10.73
2022-10-13T16:46:56.759Z,8.98
2022-10-13T16:49:24.526Z,8.48
2022-10-13T16:51:52.134Z,11.85
2022-10-13T16:54:19.706Z,10.45
2022-10-13T16:56:47.649Z,9.10
2022-10-13T16:59:15.251Z,9.32
2022-10-13T17:01:45.123Z,10.07
2022-10-13T17:04:12.673Z,10.65
2022-10-13T17:06:40.984Z,10.10
2022-10-13T17:09:09.001Z,10.27
2022-10-13T17:11:37.315Z,8.95
2022-10-13T17:14:06.465Z,11.45
2022-10-13T17:16:35.918Z,13.23
2022-10-13T17:19:04.848Z,14.73
2022-10-13T17:21:37.046Z,12.88
2022-10-13T17:24:06.706Z,11.82
2022-10-13T17:26:34.398Z,14.35
2022-10-13T17:29:02.038Z,14.52
2022-10-13T17:31:29.731Z,14.93
2022-10-13T17:33:57.362Z,16.75
2022-10-13T17:36:28.298Z,14.65
2022-10-13T17:38:57.810Z,14.13
2022-10-13T17:41:25.697Z,14.80
2022-10-13T17:43:53.468Z,14.00
2022-10-13T17:46:39.443Z,13.80
2022-10-13T17:49:08.231Z,14.05
2022-10-13T17:51:37.283Z,13.52
2022-10-13T17:54:05.795Z,13.48
2022-10-13T17:56:33.403Z,14.48
2022-10-13T17:59:01.930Z,15.88
2022-10-13T18:01:31.581Z,15.60
2022-10-13T18:04:00.864Z,14.52
2022-10-13T18:06:32.626Z,14.95
2022-10-13T18:09:07.710Z,15.95
2022-10-13T18:11:36.020Z,15.85
2022-10-13T18:14:03.626Z,16.33
2022-10-13T18:16:31.363Z,17.42
2022-10-13T18:18:59.032Z,18.70
2022-10-13T18:21:27.155Z,17.80
2022-10-13T18:23:56.226Z,16.60
2022-10-13T18:26:26.874Z,17.17
2022-10-13T18:28:55.558Z,18.20
2022-10-13T18:31:27.366Z,16.83
2022-10-13T18:34:02.407Z,20.08
2022-10-13T18:36:32.419Z,22.08
2022-10-13T18:39:03.714Z,23.20
2022-10-13T18:41:36.108Z,22.85
2022-10-13T18:44:04.437Z,21.80
2022-10-13T18:46:32.824Z,21.83
2022-10-13T18:49:00.410Z,23.08
2022-10-13T18:51:33.426Z,22.38
2022-10-13T18:54:03.488Z,22.67
2022-10-13T18:56:34.084Z,22.65
2022-10-13T18:59:02.844Z,19.80
2022-10-13T19:01:32.353Z,21.27
2022-10-13T19:04:00.171Z,21.15
2022-10-13T19:06:31.983Z,20.60
2022-10-13T19:09:01.499Z,20.40
2022-10-13T19:11:30.702Z,20.50
2022-10-13T19:14:00.755Z,21.33
2022-10-13T19:16:30.503Z,21.55
2022-10-13T19:18:59.907Z,21.08
2022-10-13T19:21:27.974Z,20.02
2022-10-13T19:23:55.658Z,21.05
2022-10-13T19:26:25.688Z,22.48
2022-10-13T19:28:54.984Z,21.90
2022-10-13T19:31:26.613Z,20.33
2022-10-13T19:33:55.518Z,21.08
2022-10-13T19:36:26.522Z,21.55
2022-10-13T19:38:56.302Z,22.20
2022-10-13T19:41:24.101Z,21.90
2022-10-13T19:43:52.007Z,22.67
2022-10-13T19:46:20.294Z,21.17
2022-10-13T19:48:49.290Z,20.75
2022-10-13T19:51:17.637Z,21.83
2022-10-13T19:53:45.710Z,22.90
2022-10-13T19:56:22.186Z,19.17
2022-10-13T19:58:49.870Z,21.20
2022-10-13T20:01:19.100Z,22.02
2022-10-13T20:03:46.990Z,19.67
2022-10-13T20:06:16.731Z,21.55
2022-10-13T20:08:44.931Z,21.05
2022-10-13T20:11:19.321Z,19.65
2022-10-13T20:13:49.966Z,18.25
2022-10-13T20:16:22.550Z,17.35
2022-10-13T20:18:53.167Z,19.80
2022-10-13T20:21:22.656Z,19.65
2022-10-13T20:23:51.155Z,19.85
2022-10-13T20:26:19.340Z,17.70
2022-10-13T20:28:48.291Z,21.48
2022-10-13T20:31:17.813Z,16.50
2022-10-13T20:33:46.754Z,20.63
2022-10-13T20:36:16.576Z,20.42
2022-10-13T20:38:46.676Z,18.95
2022-10-13T20:41:17.595Z,18.90
2022-10-13T20:43:45.740Z,19.00
2022-10-13T20:46:13.541Z,21.63
2022-10-13T20:49:09.236Z,19.88
2022-10-13T20:51:30.516Z,21.75
2022-10-13T20:53:59.473Z,19.83
2022-10-13T20:56:28.034Z,18.38
2022-10-13T20:58:55.662Z,20.02
2022-10-13T21:01:23.972Z,22.00
2022-10-13T21:03:55.361Z,19.48
2022-10-13T21:06:24.715Z,21.10
2022-10-13T21:08:53.022Z,18.85
2022-10-13T21:11:23.541Z,20.08
2022-10-13T21:13:52.260Z,19.98
2022-10-13T21:16:22.530Z,17.98
2022-10-13T21:18:54.532Z,19.98
2022-10-13T21:21:24.367Z,19.15
2022-10-13T21:23:52.999Z,18.58
2022-10-13T21:26:24.167Z,18.30
2022-10-13T21:28:53.484Z,19.67
2022-10-13T21:31:22.956Z,18.77
2022-10-13T21:33:52.648Z,18.45
2022-10-13T21:36:23.237Z,17.30
2022-10-13T21:38:53.336Z,17.10
2022-10-13T21:41:23.277Z,17.65
2022-10-13T21:43:52.984Z,16.63
2022-10-13T21:46:23.806Z,18.23
2022-10-13T21:48:57.293Z,18.38
2022-10-13T21:51:29.067Z,17.10
2022-10-13T21:53:58.433Z,18.02
2022-10-13T21:56:28.727Z,18.02
2022-10-13T21:58:56.901Z,15.93
2022-10-13T22:01:25.063Z,15.88
2022-10-13T22:03:56.103Z,20.35
2022-10-13T22:06:27.069Z,17.27
2022-10-13T22:08:56.450Z,18.73
2022-10-13T22:11:27.561Z,17.75
2022-10-13T22:13:56.746Z,17.15
2022-10-13T22:16:27.588Z,18.85
2022-10-13T22:18:56.556Z,17.45
2022-10-13T22:21:26.739Z,16.05
2022-10-13T22:23:58.236Z,18.40
2022-10-13T22:26:28.353Z,17.67
2022-10-13T22:28:57.545Z,17.52
2022-10-13T22:31:25.268Z,18.17
2022-10-13T22:33:53.769Z,16.48
2022-10-13T22:36:23.090Z,16.92
2022-10-13T22:38:52.223Z,17.90
2022-10-13T22:41:20.890Z,18.08
2022-10-13T22:43:52.200Z,17.85
2022-10-13T22:46:22.693Z,17.33
2022-10-13T22:48:50.400Z,17.63
2022-10-13T22:51:20.523Z,17.08
2022-10-13T22:53:48.903Z,18.23
2022-10-13T22:56:19.969Z,18.48
2022-10-13T22:58:51.882Z,18.80
2022-10-13T23:01:20.971Z,17.52
2022-10-13T23:03:49.243Z,17.52
2022-10-13T23:06:18.714Z,17.08
2022-10-13T23:08:46.583Z,19.83
2022-10-13T23:11:14.645Z,16.25
2022-10-13T23:13:42.356Z,17.60
2022-10-13T23:16:14.738Z,19.40
2022-10-13T23:18:45.629Z,18.20
2022-10-13T23:21:27.329Z,15.52
2022-10-13T23:23:55.920Z,18.27
2022-10-13T23:26:24.012Z,20.17
2022-10-13T23:28:52.198Z,20.40
2022-10-13T23:31:21.311Z,17.88
2022-10-13T23:33:49.146Z,20.30
2022-10-13T23:36:18.347Z,20.48
2022-10-13T23:38:48.885Z,20.50
2022-10-13T23:41:17.445Z,20.98
2022-10-13T23:43:45.216Z,20.52
2022-10-13T23:46:13.052Z,18.23
2022-10-13T23:48:42.255Z,20.55
2022-10-13T23:51:12.037Z,18.98
2022-10-13T23:53:41.749Z,21.13
2022-10-13T23:56:10.874Z,19.90
2022-10-13T23:58:40.380Z,20.08
